sensor_id;sensor_type;location;lat;lon;timestamp;P1;durP1;ratioP1;P2;durP2;ratioP2
40707;SDS011;26392;42.696;23.350;2023-04-24T00:00:31;8.95;;;4.72;;
40707;SDS011;26392;42.696;23.350;2023-04-24T00:02:56;9.88;;;4.80;;
40707;SDS011;26392;42.696;23.350;2023-04-24T00:05:23;7.43;;;4.63;;
40707;SDS011;26392;42.696;23.350;2023-04-24T00:07:49;7.68;;;4.22;;
40707;SDS011;26392;42.696;23.350;2023-04-24T00:10:17;12.77;;;4.22;;
40707;SDS011;26392;42.696;23.350;2023-04-24T00:12:43;8.90;;;4.13;;
40707;SDS011;26392;42.696;23.350;2023-04-24T00:15:09;6.40;;;4.03;;
40707;SDS011;26392;42.696;23.350;2023-04-24T00:17:35;9.45;;;4.05;;
40707;SDS011;26392;42.696;23.350;2023-04-24T00:20:00;6.65;;;3.60;;
40707;SDS011;26392;42.696;23.350;2023-04-24T00:22:29;7.57;;;4.20;;
40707;SDS011;26392;42.696;23.350;2023-04-24T00:24:55;6.82;;;4.03;;
40707;SDS011;26392;42.696;23.350;2023-04-24T00:27:21;12.13;;;4.03;;
40707;SDS011;26392;42.696;23.350;2023-04-24T00:29:47;7.57;;;3.40;;
40707;SDS011;26392;42.696;23.350;2023-04-24T00:32:12;7.40;;;3.92;;
40707;SDS011;26392;42.696;23.350;2023-04-24T00:34:38;6.25;;;3.42;;
40707;SDS011;26392;42.696;23.350;2023-04-24T00:37:04;7.00;;;3.78;;
40707;SDS011;26392;42.696;23.350;2023-04-24T00:39:30;9.98;;;4.18;;
40707;SDS011;26392;42.696;23.350;2023-04-24T00:41:55;7.38;;;3.63;;
40707;SDS011;26392;42.696;23.350;2023-04-24T00:44:21;4.63;;;3.35;;
40707;SDS011;26392;42.696;23.350;2023-04-24T00:46:47;12.85;;;3.78;;
40707;SDS011;26392;42.696;23.350;2023-04-24T00:49:17;5.70;;;3.63;;
40707;SDS011;26392;42.696;23.350;2023-04-24T00:51:44;4.85;;;3.08;;
40707;SDS011;26392;42.696;23.350;2023-04-24T00:54:10;8.30;;;3.83;;
40707;SDS011;26392;42.696;23.350;2023-04-24T00:56:39;7.35;;;3.65;;
40707;SDS011;26392;42.696;23.350;2023-04-24T00:59:06;5.68;;;3.33;;
40707;SDS011;26392;42.696;23.350;2023-04-24T01:01:31;6.93;;;3.70;;
40707;SDS011;26392;42.696;23.350;2023-04-24T01:03:57;10.48;;;4.03;;
40707;SDS011;26392;42.696;23.350;2023-04-24T01:06:23;7.43;;;3.55;;
40707;SDS011;26392;42.696;23.350;2023-04-24T01:08:53;5.38;;;3.70;;
40707;SDS011;26392;42.696;23.350;2023-04-24T01:11:19;8.35;;;3.72;;
40707;SDS011;26392;42.696;23.350;2023-04-24T01:13:46;8.35;;;3.58;;
40707;SDS011;26392;42.696;23.350;2023-04-24T01:16:13;8.35;;;3.90;;
40707;SDS011;26392;42.696;23.350;2023-04-24T01:18:42;6.18;;;3.42;;
40707;SDS011;26392;42.696;23.350;2023-04-24T01:21:09;6.95;;;4.10;;
40707;SDS011;26392;42.696;23.350;2023-04-24T01:23:37;6.82;;;3.88;;
40707;SDS011;26392;42.696;23.350;2023-04-24T01:26:03;5.40;;;3.88;;
40707;SDS011;26392;42.696;23.350;2023-04-24T01:28:28;9.13;;;4.53;;
40707;SDS011;26392;42.696;23.350;2023-04-24T01:30:54;7.30;;;4.35;;
40707;SDS011;26392;42.696;23.350;2023-04-24T01:33:20;7.30;;;4.80;;
40707;SDS011;26392;42.696;23.350;2023-04-24T01:35:46;6.40;;;4.15;;
40707;SDS011;26392;42.696;23.350;2023-04-24T01:38:12;8.60;;;5.13;;
40707;SDS011;26392;42.696;23.350;2023-04-24T01:40:38;13.50;;;4.45;;
40707;SDS011;26392;42.696;23.350;2023-04-24T01:43:04;8.10;;;4.78;;
40707;SDS011;26392;42.696;23.350;2023-04-24T01:45:30;9.43;;;4.68;;
40707;SDS011;26392;42.696;23.350;2023-04-24T01:47:55;9.05;;;4.95;;
40707;SDS011;26392;42.696;23.350;2023-04-24T01:50:21;8.63;;;4.82;;
40707;SDS011;26392;42.696;23.350;2023-04-24T01:52:46;8.40;;;5.00;;
40707;SDS011;26392;42.696;23.350;2023-04-24T01:55:12;10.38;;;5.80;;
40707;SDS011;26392;42.696;23.350;2023-04-24T01:57:37;8.55;;;5.05;;
40707;SDS011;26392;42.696;23.350;2023-04-24T02:00:03;11.75;;;5.43;;
40707;SDS011;26392;42.696;23.350;2023-04-24T02:02:29;7.03;;;4.30;;
40707;SDS011;26392;42.696;23.350;2023-04-24T02:04:55;9.18;;;4.55;;
40707;SDS011;26392;42.696;23.350;2023-04-24T02:07:21;7.05;;;4.53;;
40707;SDS011;26392;42.696;23.350;2023-04-24T02:09:47;9.38;;;5.13;;
40707;SDS011;26392;42.696;23.350;2023-04-24T02:12:13;13.52;;;4.75;;
40707;SDS011;26392;42.696;23.350;2023-04-24T02:14:39;10.13;;;4.55;;
40707;SDS011;26392;42.696;23.350;2023-04-24T02:17:04;12.25;;;5.00;;
40707;SDS011;26392;42.696;23.350;2023-04-24T02:19:30;7.13;;;4.35;;
40707;SDS011;26392;42.696;23.350;2023-04-24T02:21:55;9.70;;;4.22;;
40707;SDS011;26392;42.696;23.350;2023-04-24T02:24:21;9.90;;;4.60;;
40707;SDS011;26392;42.696;23.350;2023-04-24T02:26:46;10.45;;;5.03;;
40707;SDS011;26392;42.696;23.350;2023-04-24T02:29:11;12.90;;;4.93;;
40707;SDS011;26392;42.696;23.350;2023-04-24T02:31:37;11.27;;;5.00;;
40707;SDS011;26392;42.696;23.350;2023-04-24T02:34:02;11.85;;;5.00;;
40707;SDS011;26392;42.696;23.350;2023-04-24T02:36:28;9.75;;;4.97;;
40707;SDS011;26392;42.696;23.350;2023-04-24T02:38:53;15.38;;;5.20;;
40707;SDS011;26392;42.696;23.350;2023-04-24T02:41:18;9.43;;;5.10;;
40707;SDS011;26392;42.696;23.350;2023-04-24T02:43:44;15.27;;;5.07;;
40707;SDS011;26392;42.696;23.350;2023-04-24T02:46:10;7.05;;;4.95;;
40707;SDS011;26392;42.696;23.350;2023-04-24T02:48:35;13.45;;;5.28;;
40707;SDS011;26392;42.696;23.350;2023-04-24T02:51:00;8.27;;;4.93;;
40707;SDS011;26392;42.696;23.350;2023-04-24T02:53:26;9.40;;;5.60;;
40707;SDS011;26392;42.696;23.350;2023-04-24T02:55:51;13.38;;;5.22;;
40707;SDS011;26392;42.696;23.350;2023-04-24T02:58:17;11.30;;;5.35;;
40707;SDS011;26392;42.696;23.350;2023-04-24T03:00:44;9.98;;;5.40;;
40707;SDS011;26392;42.696;23.350;2023-04-24T03:03:10;15.57;;;5.35;;
40707;SDS011;26392;42.696;23.350;2023-04-24T03:05:36;15.75;;;5.63;;
40707;SDS011;26392;42.696;23.350;2023-04-24T03:08:01;13.48;;;5.35;;
40707;SDS011;26392;42.696;23.350;2023-04-24T03:10:26;8.60;;;5.85;;
40707;SDS011;26392;42.696;23.350;2023-04-24T03:12:52;9.88;;;6.05;;
40707;SDS011;26392;42.696;23.350;2023-04-24T03:15:18;10.13;;;5.80;;
40707;SDS011;26392;42.696;23.350;2023-04-24T03:17:43;11.25;;;5.22;;
40707;SDS011;26392;42.696;23.350;2023-04-24T03:20:08;10.35;;;6.05;;
40707;SDS011;26392;42.696;23.350;2023-04-24T03:22:34;11.07;;;5.13;;
40707;SDS011;26392;42.696;23.350;2023-04-24T03:25:00;11.30;;;6.40;;
40707;SDS011;26392;42.696;23.350;2023-04-24T03:27:26;11.18;;;6.35;;
40707;SDS011;26392;42.696;23.350;2023-04-24T03:29:51;14.52;;;6.32;;
40707;SDS011;26392;42.696;23.350;2023-04-24T03:32:20;15.10;;;6.25;;
40707;SDS011;26392;42.696;23.350;2023-04-24T03:34:46;14.25;;;5.72;;
40707;SDS011;26392;42.696;23.350;2023-04-24T03:37:11;13.60;;;5.68;;
40707;SDS011;26392;42.696;23.350;2023-04-24T03:39:36;15.65;;;6.72;;
40707;SDS011;26392;42.696;23.350;2023-04-24T03:42:02;9.40;;;5.93;;
40707;SDS011;26392;42.696;23.350;2023-04-24T03:44:28;13.75;;;6.00;;
40707;SDS011;26392;42.696;23.350;2023-04-24T03:46:53;16.00;;;5.85;;
40707;SDS011;26392;42.696;23.350;2023-04-24T03:49:18;13.35;;;6.07;;
40707;SDS011;26392;42.696;23.350;2023-04-24T03:51:44;10.48;;;5.72;;
40707;SDS011;26392;42.696;23.350;2023-04-24T03:54:09;10.45;;;5.72;;
40707;SDS011;26392;42.696;23.350;2023-04-24T03:56:35;12.32;;;6.78;;
40707;SDS011;26392;42.696;23.350;2023-04-24T03:59:00;11.48;;;6.13;;
40707;SDS011;26392;42.696;23.350;2023-04-24T04:01:26;9.00;;;6.05;;
40707;SDS011;26392;42.696;23.350;2023-04-24T04:03:53;12.13;;;5.50;;
40707;SDS011;26392;42.696;23.350;2023-04-24T04:06:18;9.60;;;5.55;;
40707;SDS011;26392;42.696;23.350;2023-04-24T04:08:44;7.38;;;4.70;;
40707;SDS011;26392;42.696;23.350;2023-04-24T04:11:09;7.03;;;4.50;;
40707;SDS011;26392;42.696;23.350;2023-04-24T04:13:35;5.97;;;4.35;;
40707;SDS011;26392;42.696;23.350;2023-04-24T04:16:00;11.27;;;4.82;;
40707;SDS011;26392;42.696;23.350;2023-04-24T04:18:26;11.65;;;3.72;;
40707;SDS011;26392;42.696;23.350;2023-04-24T04:20:51;7.78;;;4.05;;
40707;SDS011;26392;42.696;23.350;2023-04-24T04:23:17;9.10;;;4.50;;
40707;SDS011;26392;42.696;23.350;2023-04-24T04:25:42;10.90;;;5.20;;
40707;SDS011;26392;42.696;23.350;2023-04-24T04:28:08;10.07;;;4.15;;
40707;SDS011;26392;42.696;23.350;2023-04-24T04:30:33;12.68;;;5.10;;
40707;SDS011;26392;42.696;23.350;2023-04-24T04:32:59;9.55;;;5.07;;
40707;SDS011;26392;42.696;23.350;2023-04-24T04:35:24;9.25;;;5.22;;
40707;SDS011;26392;42.696;23.350;2023-04-24T04:37:50;11.23;;;5.93;;
40707;SDS011;26392;42.696;23.350;2023-04-24T04:40:16;11.40;;;6.38;;
40707;SDS011;26392;42.696;23.350;2023-04-24T04:42:42;11.43;;;5.72;;
40707;SDS011;26392;42.696;23.350;2023-04-24T04:45:11;10.80;;;6.15;;
40707;SDS011;26392;42.696;23.350;2023-04-24T04:47:36;13.73;;;5.97;;
40707;SDS011;26392;42.696;23.350;2023-04-24T04:50:02;11.15;;;6.18;;
40707;SDS011;26392;42.696;23.350;2023-04-24T04:52:29;12.80;;;6.28;;
40707;SDS011;26392;42.696;23.350;2023-04-24T04:54:54;11.95;;;6.78;;
40707;SDS011;26392;42.696;23.350;2023-04-24T04:57:20;12.00;;;6.72;;
40707;SDS011;26392;42.696;23.350;2023-04-24T04:59:45;14.95;;;7.70;;
40707;SDS011;26392;42.696;23.350;2023-04-24T05:02:11;15.38;;;6.90;;
40707;SDS011;26392;42.696;23.350;2023-04-24T05:04:36;17.80;;;9.35;;
40707;SDS011;26392;42.696;23.350;2023-04-24T05:07:02;20.40;;;9.73;;
40707;SDS011;26392;42.696;23.350;2023-04-24T05:09:28;17.27;;;8.88;;
40707;SDS011;26392;42.696;23.350;2023-04-24T05:11:54;15.23;;;8.93;;
40707;SDS011;26392;42.696;23.350;2023-04-24T05:14:20;20.67;;;9.90;;
40707;SDS011;26392;42.696;23.350;2023-04-24T05:16:45;16.17;;;9.10;;
40707;SDS011;26392;42.696;23.350;2023-04-24T05:19:11;16.67;;;8.18;;
40707;SDS011;26392;42.696;23.350;2023-04-24T05:21:39;17.05;;;7.90;;
40707;SDS011;26392;42.696;23.350;2023-04-24T05:24:05;13.18;;;6.85;;
40707;SDS011;26392;42.696;23.350;2023-04-24T05:26:31;14.40;;;7.15;;
40707;SDS011;26392;42.696;23.350;2023-04-24T05:28:56;9.63;;;6.15;;
40707;SDS011;26392;42.696;23.350;2023-04-24T05:31:22;14.55;;;6.60;;
40707;SDS011;26392;42.696;23.350;2023-04-24T05:36:31;13.23;;;6.20;;
40707;SDS011;26392;42.696;23.350;2023-04-24T05:38:57;13.50;;;5.90;;
40707;SDS011;26392;42.696;23.350;2023-04-24T05:41:22;15.13;;;6.45;;
40707;SDS011;26392;42.696;23.350;2023-04-24T05:43:48;11.85;;;6.80;;
40707;SDS011;26392;42.696;23.350;2023-04-24T05:46:14;16.60;;;6.95;;
40707;SDS011;26392;42.696;23.350;2023-04-24T05:48:39;13.05;;;6.90;;
40707;SDS011;26392;42.696;23.350;2023-04-24T05:51:04;14.10;;;6.75;;
40707;SDS011;26392;42.696;23.350;2023-04-24T05:53:30;11.52;;;6.15;;
40707;SDS011;26392;42.696;23.350;2023-04-24T05:55:55;12.25;;;6.45;;
40707;SDS011;26392;42.696;23.350;2023-04-24T05:58:21;14.77;;;6.75;;
40707;SDS011;26392;42.696;23.350;2023-04-24T06:00:46;11.25;;;6.20;;
40707;SDS011;26392;42.696;23.350;2023-04-24T06:03:12;13.48;;;5.97;;
40707;SDS011;26392;42.696;23.350;2023-04-24T06:05:37;14.13;;;6.38;;
40707;SDS011;26392;42.696;23.350;2023-04-24T06:08:03;23.92;;;7.60;;
40707;SDS011;26392;42.696;23.350;2023-04-24T06:10:28;12.85;;;7.05;;
40707;SDS011;26392;42.696;23.350;2023-04-24T06:12:53;10.23;;;5.97;;
40707;SDS011;26392;42.696;23.350;2023-04-24T06:15:21;12.88;;;6.55;;
40707;SDS011;26392;42.696;23.350;2023-04-24T06:17:47;10.63;;;6.65;;
40707;SDS011;26392;42.696;23.350;2023-04-24T06:20:12;13.18;;;6.68;;
40707;SDS011;26392;42.696;23.350;2023-04-24T06:22:38;14.00;;;7.05;;
40707;SDS011;26392;42.696;23.350;2023-04-24T06:25:05;16.38;;;6.90;;
40707;SDS011;26392;42.696;23.350;2023-04-24T06:27:30;12.30;;;6.30;;
40707;SDS011;26392;42.696;23.350;2023-04-24T06:29:56;14.90;;;7.28;;
40707;SDS011;26392;42.696;23.350;2023-04-24T06:32:22;10.38;;;5.75;;
40707;SDS011;26392;42.696;23.350;2023-04-24T06:34:48;12.15;;;6.80;;
40707;SDS011;26392;42.696;23.350;2023-04-24T06:37:14;10.32;;;6.57;;
40707;SDS011;26392;42.696;23.350;2023-04-24T06:39:41;11.43;;;6.32;;
40707;SDS011;26392;42.696;23.350;2023-04-24T06:42:06;14.30;;;6.43;;
40707;SDS011;26392;42.696;23.350;2023-04-24T06:44:34;10.48;;;6.60;;
40707;SDS011;26392;42.696;23.350;2023-04-24T06:47:05;11.55;;;6.43;;
40707;SDS011;26392;42.696;23.350;2023-04-24T06:49:37;10.00;;;6.55;;
40707;SDS011;26392;42.696;23.350;2023-04-24T06:52:03;12.88;;;6.95;;
40707;SDS011;26392;42.696;23.350;2023-04-24T06:54:28;12.93;;;7.18;;
40707;SDS011;26392;42.696;23.350;2023-04-24T06:56:54;10.55;;;6.18;;
40707;SDS011;26392;42.696;23.350;2023-04-24T06:59:20;15.80;;;7.40;;
40707;SDS011;26392;42.696;23.350;2023-04-24T07:01:46;12.75;;;6.65;;
40707;SDS011;26392;42.696;23.350;2023-04-24T07:04:11;13.48;;;7.28;;
40707;SDS011;26392;42.696;23.350;2023-04-24T07:06:38;13.02;;;6.60;;
40707;SDS011;26392;42.696;23.350;2023-04-24T07:09:04;11.38;;;6.72;;
40707;SDS011;26392;42.696;23.350;2023-04-24T07:11:29;12.52;;;7.05;;
40707;SDS011;26392;42.696;23.350;2023-04-24T07:13:55;13.18;;;6.90;;
40707;SDS011;26392;42.696;23.350;2023-04-24T07:16:20;17.55;;;6.32;;
40707;SDS011;26392;42.696;23.350;2023-04-24T07:18:46;14.20;;;7.18;;
40707;SDS011;26392;42.696;23.350;2023-04-24T07:21:12;14.00;;;6.13;;
40707;SDS011;26392;42.696;23.350;2023-04-24T07:23:37;12.05;;;6.88;;
40707;SDS011;26392;42.696;23.350;2023-04-24T07:26:03;18.25;;;7.57;;
40707;SDS011;26392;42.696;23.350;2023-04-24T07:28:28;13.13;;;7.32;;
40707;SDS011;26392;42.696;23.350;2023-04-24T07:30:56;13.40;;;6.90;;
40707;SDS011;26392;42.696;23.350;2023-04-24T07:33:22;14.45;;;6.80;;
40707;SDS011;26392;42.696;23.350;2023-04-24T07:35:48;14.88;;;7.00;;
40707;SDS011;26392;42.696;23.350;2023-04-24T07:38:13;15.35;;;8.20;;
40707;SDS011;26392;42.696;23.350;2023-04-24T07:40:39;15.80;;;6.97;;
40707;SDS011;26392;42.696;23.350;2023-04-24T07:43:04;14.05;;;6.57;;
40707;SDS011;26392;42.696;23.350;2023-04-24T07:45:30;16.58;;;7.40;;
40707;SDS011;26392;42.696;23.350;2023-04-24T07:47:57;13.23;;;5.82;;
40707;SDS011;26392;42.696;23.350;2023-04-24T07:50:22;12.88;;;6.57;;
40707;SDS011;26392;42.696;23.350;2023-04-24T07:52:48;12.48;;;6.82;;
40707;SDS011;26392;42.696;23.350;2023-04-24T07:55:13;7.00;;;5.40;;
40707;SDS011;26392;42.696;23.350;2023-04-24T07:57:39;12.65;;;6.20;;
40707;SDS011;26392;42.696;23.350;2023-04-24T08:00:04;10.18;;;5.85;;
40707;SDS011;26392;42.696;23.350;2023-04-24T08:02:30;11.77;;;6.00;;
40707;SDS011;26392;42.696;23.350;2023-04-24T08:04:56;10.65;;;6.22;;
40707;SDS011;26392;42.696;23.350;2023-04-24T08:07:22;9.10;;;6.32;;
40707;SDS011;26392;42.696;23.350;2023-04-24T08:09:48;12.30;;;6.15;;
40707;SDS011;26392;42.696;23.350;2023-04-24T08:12:14;12.65;;;6.00;;
40707;SDS011;26392;42.696;23.350;2023-04-24T08:14:39;8.82;;;6.50;;
40707;SDS011;26392;42.696;23.350;2023-04-24T08:17:05;7.95;;;5.00;;
40707;SDS011;26392;42.696;23.350;2023-04-24T08:19:30;9.98;;;5.78;;
40707;SDS011;26392;42.696;23.350;2023-04-24T08:21:56;10.60;;;4.88;;
40707;SDS011;26392;42.696;23.350;2023-04-24T08:24:22;8.55;;;5.32;;
40707;SDS011;26392;42.696;23.350;2023-04-24T08:26:47;9.25;;;5.03;;
40707;SDS011;26392;42.696;23.350;2023-04-24T08:29:17;10.88;;;5.30;;
40707;SDS011;26392;42.696;23.350;2023-04-24T08:31:42;7.45;;;5.07;;
40707;SDS011;26392;42.696;23.350;2023-04-24T08:34:09;10.82;;;5.05;;
40707;SDS011;26392;42.696;23.350;2023-04-24T08:36:34;7.07;;;4.80;;
40707;SDS011;26392;42.696;23.350;2023-04-24T08:39:00;9.15;;;5.82;;
40707;SDS011;26392;42.696;23.350;2023-04-24T08:41:26;7.75;;;5.30;;
40707;SDS011;26392;42.696;23.350;2023-04-24T08:43:52;8.38;;;5.15;;
40707;SDS011;26392;42.696;23.350;2023-04-24T08:46:20;9.00;;;4.93;;
40707;SDS011;26392;42.696;23.350;2023-04-24T08:48:45;7.03;;;5.03;;
40707;SDS011;26392;42.696;23.350;2023-04-24T08:51:11;9.98;;;4.50;;
40707;SDS011;26392;42.696;23.350;2023-04-24T08:53:36;10.73;;;4.70;;
40707;SDS011;26392;42.696;23.350;2023-04-24T08:56:02;6.38;;;4.10;;
40707;SDS011;26392;42.696;23.350;2023-04-24T08:58:29;6.22;;;4.25;;
40707;SDS011;26392;42.696;23.350;2023-04-24T09:00:55;4.43;;;3.85;;
40707;SDS011;26392;42.696;23.350;2023-04-24T09:03:22;7.15;;;4.13;;
40707;SDS011;26392;42.696;23.350;2023-04-24T09:05:48;7.53;;;4.65;;
40707;SDS011;26392;42.696;23.350;2023-04-24T09:08:16;7.75;;;4.80;;
40707;SDS011;26392;42.696;23.350;2023-04-24T09:10:43;6.18;;;4.20;;
40707;SDS011;26392;42.696;23.350;2023-04-24T09:13:09;9.52;;;4.85;;
40707;SDS011;26392;42.696;23.350;2023-04-24T09:15:35;9.50;;;4.32;;
40707;SDS011;26392;42.696;23.350;2023-04-24T09:18:02;7.55;;;4.65;;
40707;SDS011;26392;42.696;23.350;2023-04-24T09:20:27;6.63;;;4.68;;
40707;SDS011;26392;42.696;23.350;2023-04-24T09:22:53;6.00;;;4.43;;
40707;SDS011;26392;42.696;23.350;2023-04-24T09:25:22;8.02;;;4.30;;
40707;SDS011;26392;42.696;23.350;2023-04-24T09:27:59;7.55;;;4.68;;
40707;SDS011;26392;42.696;23.350;2023-04-24T09:30:25;6.80;;;5.10;;
40707;SDS011;26392;42.696;23.350;2023-04-24T09:33:03;10.75;;;4.80;;
40707;SDS011;26392;42.696;23.350;2023-04-24T09:35:35;7.55;;;4.65;;
40707;SDS011;26392;42.696;23.350;2023-04-24T09:38:00;6.05;;;4.18;;
40707;SDS011;26392;42.696;23.350;2023-04-24T09:40:26;6.53;;;4.15;;
40707;SDS011;26392;42.696;23.350;2023-04-24T09:42:52;6.57;;;4.15;;
40707;SDS011;26392;42.696;23.350;2023-04-24T09:45:18;6.15;;;4.32;;
40707;SDS011;26392;42.696;23.350;2023-04-24T09:47:45;8.82;;;4.63;;
40707;SDS011;26392;42.696;23.350;2023-04-24T09:52:40;7.43;;;4.03;;
40707;SDS011;26392;42.696;23.350;2023-04-24T09:55:25;7.95;;;3.75;;
40707;SDS011;26392;42.696;23.350;2023-04-24T09:57:52;6.07;;;4.47;;
40707;SDS011;26392;42.696;23.350;2023-04-24T10:00:23;6.35;;;4.22;;
40707;SDS011;26392;42.696;23.350;2023-04-24T10:02:57;9.30;;;4.35;;
40707;SDS011;26392;42.696;23.350;2023-04-24T10:05:34;6.80;;;4.50;;
40707;SDS011;26392;42.696;23.350;2023-04-24T10:08:08;6.93;;;4.18;;
40707;SDS011;26392;42.696;23.350;2023-04-24T10:10:37;12.97;;;4.83;;
40707;SDS011;26392;42.696;23.350;2023-04-24T10:13:05;8.65;;;4.75;;
40707;SDS011;26392;42.696;23.350;2023-04-24T10:15:32;5.05;;;4.00;;
40707;SDS011;26392;42.696;23.350;2023-04-24T10:17:58;16.25;;;4.35;;
40707;SDS011;26392;42.696;23.350;2023-04-24T10:20:26;11.18;;;4.15;;
40707;SDS011;26392;42.696;23.350;2023-04-24T10:22:55;10.63;;;4.20;;
40707;SDS011;26392;42.696;23.350;2023-04-24T10:25:21;5.55;;;4.55;;
40707;SDS011;26392;42.696;23.350;2023-04-24T10:27:52;8.32;;;3.92;;
40707;SDS011;26392;42.696;23.350;2023-04-24T10:30:19;6.57;;;3.60;;
40707;SDS011;26392;42.696;23.350;2023-04-24T10:32:45;6.78;;;3.38;;
40707;SDS011;26392;42.696;23.350;2023-04-24T10:35:11;5.00;;;3.92;;
40707;SDS011;26392;42.696;23.350;2023-04-24T10:37:39;8.32;;;4.43;;
40707;SDS011;26392;42.696;23.350;2023-04-24T10:40:07;6.68;;;4.40;;
40707;SDS011;26392;42.696;23.350;2023-04-24T10:42:34;11.35;;;4.47;;
40707;SDS011;26392;42.696;23.350;2023-04-24T10:45:04;7.35;;;4.82;;
40707;SDS011;26392;42.696;23.350;2023-04-24T10:47:38;7.75;;;4.30;;
40707;SDS011;26392;42.696;23.350;2023-04-24T10:50:07;6.30;;;4.15;;
40707;SDS011;26392;42.696;23.350;2023-04-24T10:52:47;6.28;;;4.00;;
40707;SDS011;26392;42.696;23.350;2023-04-24T10:55:15;6.53;;;4.13;;
40707;SDS011;26392;42.696;23.350;2023-04-24T10:58:00;5.15;;;4.03;;
40707;SDS011;26392;42.696;23.350;2023-04-24T11:00:28;5.60;;;4.18;;
40707;SDS011;26392;42.696;23.350;2023-04-24T11:02:54;4.82;;;3.70;;
40707;SDS011;26392;42.696;23.350;2023-04-24T11:05:20;4.53;;;3.85;;
40707;SDS011;26392;42.696;23.350;2023-04-24T11:10:38;10.50;;;4.15;;
40707;SDS011;26392;42.696;23.350;2023-04-24T11:13:05;8.68;;;4.18;;
40707;SDS011;26392;42.696;23.350;2023-04-24T11:15:30;7.80;;;4.00;;
40707;SDS011;26392;42.696;23.350;2023-04-24T11:17:55;9.30;;;4.15;;
40707;SDS011;26392;42.696;23.350;2023-04-24T11:20:22;6.50;;;3.92;;
40707;SDS011;26392;42.696;23.350;2023-04-24T11:22:48;7.88;;;4.20;;
40707;SDS011;26392;42.696;23.350;2023-04-24T11:25:22;6.80;;;3.67;;
40707;SDS011;26392;42.696;23.350;2023-04-24T11:27:48;11.25;;;4.25;;
40707;SDS011;26392;42.696;23.350;2023-04-24T11:30:18;9.75;;;4.32;;
40707;SDS011;26392;42.696;23.350;2023-04-24T11:32:48;7.53;;;4.43;;
40707;SDS011;26392;42.696;23.350;2023-04-24T11:35:19;6.05;;;3.97;;
40707;SDS011;26392;42.696;23.350;2023-04-24T11:37:47;4.82;;;3.80;;
40707;SDS011;26392;42.696;23.350;2023-04-24T11:40:15;6.72;;;4.20;;
40707;SDS011;26392;42.696;23.350;2023-04-24T11:42:46;4.05;;;3.55;;
40707;SDS011;26392;42.696;23.350;2023-04-24T11:45:22;4.95;;;3.95;;
40707;SDS011;26392;42.696;23.350;2023-04-24T11:47:49;5.88;;;3.28;;
40707;SDS011;26392;42.696;23.350;2023-04-24T11:50:16;5.80;;;3.83;;
40707;SDS011;26392;42.696;23.350;2023-04-24T11:52:44;4.55;;;4.03;;
40707;SDS011;26392;42.696;23.350;2023-04-24T11:57:40;4.57;;;3.15;;
40707;SDS011;26392;42.696;23.350;2023-04-24T12:00:14;4.25;;;3.70;;
40707;SDS011;26392;42.696;23.350;2023-04-24T12:02:41;6.90;;;3.97;;
40707;SDS011;26392;42.696;23.350;2023-04-24T12:05:06;3.45;;;2.90;;
40707;SDS011;26392;42.696;23.350;2023-04-24T12:07:36;4.28;;;3.05;;
40707;SDS011;26392;42.696;23.350;2023-04-24T12:10:07;3.55;;;3.08;;
40707;SDS011;26392;42.696;23.350;2023-04-24T12:12:34;5.82;;;4.15;;
40707;SDS011;26392;42.696;23.350;2023-04-24T12:15:00;5.80;;;3.42;;
40707;SDS011;26392;42.696;23.350;2023-04-24T12:17:30;4.78;;;3.53;;
40707;SDS011;26392;42.696;23.350;2023-04-24T12:20:00;4.57;;;3.65;;
40707;SDS011;26392;42.696;23.350;2023-04-24T12:27:41;11.80;;;4.65;;
40707;SDS011;26392;42.696;23.350;2023-04-24T12:30:12;7.45;;;5.63;;
40707;SDS011;26392;42.696;23.350;2023-04-24T12:32:43;11.60;;;4.75;;
40707;SDS011;26392;42.696;23.350;2023-04-24T12:35:19;5.40;;;3.63;;
40707;SDS011;26392;42.696;23.350;2023-04-24T12:37:48;20.45;;;4.10;;
40707;SDS011;26392;42.696;23.350;2023-04-24T12:40:15;5.75;;;4.30;;
40707;SDS011;26392;42.696;23.350;2023-04-24T12:42:45;4.70;;;3.70;;
40707;SDS011;26392;42.696;23.350;2023-04-24T12:45:12;6.85;;;4.47;;
40707;SDS011;26392;42.696;23.350;2023-04-24T12:47:39;7.00;;;3.95;;
40707;SDS011;26392;42.696;23.350;2023-04-24T12:50:07;9.25;;;4.10;;
40707;SDS011;26392;42.696;23.350;2023-04-24T12:52:33;7.75;;;4.85;;
40707;SDS011;26392;42.696;23.350;2023-04-24T12:55:00;8.60;;;3.72;;
40707;SDS011;26392;42.696;23.350;2023-04-24T12:57:27;4.65;;;3.10;;
40707;SDS011;26392;42.696;23.350;2023-04-24T12:59:54;5.05;;;3.47;;
40707;SDS011;26392;42.696;23.350;2023-04-24T13:02:32;5.50;;;3.47;;
40707;SDS011;26392;42.696;23.350;2023-04-24T13:04:58;7.45;;;3.45;;
40707;SDS011;26392;42.696;23.350;2023-04-24T13:07:24;9.63;;;3.90;;
40707;SDS011;26392;42.696;23.350;2023-04-24T13:09:51;5.30;;;3.50;;
40707;SDS011;26392;42.696;23.350;2023-04-24T13:12:17;10.73;;;3.75;;
40707;SDS011;26392;42.696;23.350;2023-04-24T13:14:43;6.70;;;3.72;;
40707;SDS011;26392;42.696;23.350;2023-04-24T13:17:08;6.20;;;3.90;;
40707;SDS011;26392;42.696;23.350;2023-04-24T13:19:37;4.63;;;3.47;;
40707;SDS011;26392;42.696;23.350;2023-04-24T13:22:08;4.03;;;3.58;;
40707;SDS011;26392;42.696;23.350;2023-04-24T13:24:34;4.72;;;3.22;;
40707;SDS011;26392;42.696;23.350;2023-04-24T13:27:00;3.67;;;3.30;;
40707;SDS011;26392;42.696;23.350;2023-04-24T13:29:26;5.07;;;3.97;;
40707;SDS011;26392;42.696;23.350;2023-04-24T13:31:52;7.72;;;4.15;;
40707;SDS011;26392;42.696;23.350;2023-04-24T13:34:20;4.47;;;3.25;;
40707;SDS011;26392;42.696;23.350;2023-04-24T13:36:46;5.43;;;3.55;;
40707;SDS011;26392;42.696;23.350;2023-04-24T13:39:11;5.43;;;3.22;;
40707;SDS011;26392;42.696;23.350;2023-04-24T13:41:37;3.95;;;3.35;;
40707;SDS011;26392;42.696;23.350;2023-04-24T13:44:03;7.38;;;4.05;;
40707;SDS011;26392;42.696;23.350;2023-04-24T13:46:29;4.90;;;3.70;;
40707;SDS011;26392;42.696;23.350;2023-04-24T13:48:55;4.13;;;3.38;;
40707;SDS011;26392;42.696;23.350;2023-04-24T13:51:22;4.75;;;3.30;;
40707;SDS011;26392;42.696;23.350;2023-04-24T13:53:48;4.05;;;3.65;;
40707;SDS011;26392;42.696;23.350;2023-04-24T13:56:13;4.25;;;3.65;;
40707;SDS011;26392;42.696;23.350;2023-04-24T13:58:39;7.68;;;4.15;;
40707;SDS011;26392;42.696;23.350;2023-04-24T14:01:04;4.65;;;3.60;;
40707;SDS011;26392;42.696;23.350;2023-04-24T14:03:30;6.35;;;4.00;;
40707;SDS011;26392;42.696;23.350;2023-04-24T14:05:55;6.15;;;3.70;;
40707;SDS011;26392;42.696;23.350;2023-04-24T14:08:21;6.18;;;4.00;;
40707;SDS011;26392;42.696;23.350;2023-04-24T14:10:46;6.03;;;4.28;;
40707;SDS011;26392;42.696;23.350;2023-04-24T14:13:12;7.93;;;3.88;;
40707;SDS011;26392;42.696;23.350;2023-04-24T14:15:38;8.40;;;3.63;;
40707;SDS011;26392;42.696;23.350;2023-04-24T14:18:03;4.47;;;3.47;;
40707;SDS011;26392;42.696;23.350;2023-04-24T14:20:29;5.18;;;3.65;;
40707;SDS011;26392;42.696;23.350;2023-04-24T14:22:55;4.75;;;3.42;;
40707;SDS011;26392;42.696;23.350;2023-04-24T14:25:23;6.53;;;3.53;;
40707;SDS011;26392;42.696;23.350;2023-04-24T14:27:49;6.78;;;3.40;;
40707;SDS011;26392;42.696;23.350;2023-04-24T14:30:15;4.28;;;3.40;;
40707;SDS011;26392;42.696;23.350;2023-04-24T14:32:40;3.75;;;3.00;;
40707;SDS011;26392;42.696;23.350;2023-04-24T14:35:06;4.43;;;3.30;;
40707;SDS011;26392;42.696;23.350;2023-04-24T14:37:32;3.97;;;3.13;;
40707;SDS011;26392;42.696;23.350;2023-04-24T14:39:58;6.13;;;3.67;;